sensor_id;sensor_type;location;lat;lon;timestamp;temperature;humidity
78902;DHT22;70441;44.758;37.686;2024-01-10T00:01:00;-6.51;74.01
78902;DHT22;70441;44.758;37.686;2024-01-10T00:02:01;-6.54;73.89
78902;DHT22;70441;44.758;37.686;2024-01-10T00:03:03;-6.56;73.93
78902;DHT22;70441;44.758;37.686;2024-01-10T00:04:04;-6.56;73.72
78902;DHT22;70441;44.758;37.686;2024-01-10T00:05:06;-6.56;73.84
78902;DHT22;70441;44.758;37.686;2024-01-10T00:06:07;-6.53;74.20
78902;DHT22;70441;44.758;37.686;2024-01-10T00:07:09;-6.51;73.89
78902;DHT22;70441;44.758;37.686;2024-01-10T00:08:10;-6.57;73.65
78902;DHT22;70441;44.758;37.686;2024-01-10T00:09:12;-6.60;74.25
78902;DHT22;70441;44.758;37.686;2024-01-10T00:10:13;-6.64;74.80
78902;DHT22;70441;44.758;37.686;2024-01-10T00:11:15;-6.68;75.07
78902;DHT22;70441;44.758;37.686;2024-01-10T00:12:16;-6.70;75.26
78902;DHT22;70441;44.758;37.686;2024-01-10T00:13:18;-6.71;75.21
78902;DHT22;70441;44.758;37.686;2024-01-10T00:14:19;-6.71;75.33
78902;DHT22;70441;44.758;37.686;2024-01-10T00:15:21;-6.71;75.17
78902;DHT22;70441;44.758;37.686;2024-01-10T00:16:22;-6.68;74.15
78902;DHT22;70441;44.758;37.686;2024-01-10T00:17:24;-6.61;73.30
78902;DHT22;70441;44.758;37.686;2024-01-10T00:18:25;-6.57;73.12
78902;DHT22;70441;44.758;37.686;2024-01-10T00:19:27;-6.53;72.95
78902;DHT22;70441;44.758;37.686;2024-01-10T00:20:28;-6.51;73.01
78902;DHT22;70441;44.758;37.686;2024-01-10T00:21:29;-6.54;73.55
78902;DHT22;70441;44.758;37.686;2024-01-10T00:22:31;-6.57;73.54
78902;DHT22;70441;44.758;37.686;2024-01-10T00:23:32;-6.57;73.74
78902;DHT22;70441;44.758;37.686;2024-01-10T00:24:34;-6.61;74.31
78902;DHT22;70441;44.758;37.686;2024-01-10T00:25:35;-6.63;74.27
78902;DHT22;70441;44.758;37.686;2024-01-10T00:26:36;-6.64;74.23
78902;DHT22;70441;44.758;37.686;2024-01-10T00:27:38;-6.61;74.15
78902;DHT22;70441;44.758;37.686;2024-01-10T00:28:39;-6.61;73.99
78902;DHT22;70441;44.758;37.686;2024-01-10T00:29:40;-6.61;74.03
78902;DHT22;70441;44.758;37.686;2024-01-10T00:30:42;-6.63;74.46
78902;DHT22;70441;44.758;37.686;2024-01-10T00:31:44;-6.71;74.98
78902;DHT22;70441;44.758;37.686;2024-01-10T00:32:46;-6.71;75.33
78902;DHT22;70441;44.758;37.686;2024-01-10T00:33:47;-6.71;75.34
78902;DHT22;70441;44.758;37.686;2024-01-10T00:34:49;-6.74;75.49
78902;DHT22;70441;44.758;37.686;2024-01-10T00:35:50;-6.77;75.59
78902;DHT22;70441;44.758;37.686;2024-01-10T00:36:52;-6.77;75.29
78902;DHT22;70441;44.758;37.686;2024-01-10T00:37:54;-6.78;74.59
78902;DHT22;70441;44.758;37.686;2024-01-10T00:38:55;-6.83;75.37
78902;DHT22;70441;44.758;37.686;2024-01-10T00:39:57;-6.81;75.97
78902;DHT22;70441;44.758;37.686;2024-01-10T00:40:58;-6.84;75.92
78902;DHT22;70441;44.758;37.686;2024-01-10T00:42:00;-6.81;75.04
78902;DHT22;70441;44.758;37.686;2024-01-10T00:43:02;-6.78;74.65
78902;DHT22;70441;44.758;37.686;2024-01-10T00:44:03;-6.75;74.32
78902;DHT22;70441;44.758;37.686;2024-01-10T00:45:05;-6.77;74.19
78902;DHT22;70441;44.758;37.686;2024-01-10T00:46:07;-6.74;74.00
78902;DHT22;70441;44.758;37.686;2024-01-10T00:47:11;-6.80;74.36
78902;DHT22;70441;44.758;37.686;2024-01-10T00:48:12;-6.81;73.98
78902;DHT22;70441;44.758;37.686;2024-01-10T00:49:14;-6.78;73.81
78902;DHT22;70441;44.758;37.686;2024-01-10T00:50:16;-6.78;73.76
78902;DHT22;70441;44.758;37.686;2024-01-10T00:51:17;-6.81;73.89
78902;DHT22;70441;44.758;37.686;2024-01-10T00:52:19;-6.81;74.02
78902;DHT22;70441;44.758;37.686;2024-01-10T00:53:20;-6.81;74.01
78902;DHT22;70441;44.758;37.686;2024-01-10T00:54:22;-6.78;73.60
78902;DHT22;70441;44.758;37.686;2024-01-10T00:55:24;-6.78;73.61
78902;DHT22;70441;44.758;37.686;2024-01-10T00:56:25;-6.83;73.64
78902;DHT22;70441;44.758;37.686;2024-01-10T00:57:27;-6.81;73.85
78902;DHT22;70441;44.758;37.686;2024-01-10T00:58:28;-6.80;73.81
78902;DHT22;70441;44.758;37.686;2024-01-10T00:59:29;-6.78;73.60
78902;DHT22;70441;44.758;37.686;2024-01-10T01:00:32;-6.78;73.10
78902;DHT22;70441;44.758;37.686;2024-01-10T01:01:33;-6.75;72.57
78902;DHT22;70441;44.758;37.686;2024-01-10T01:02:37;-6.78;72.65
78902;DHT22;70441;44.758;37.686;2024-01-10T01:03:40;-6.77;72.51
78902;DHT22;70441;44.758;37.686;2024-01-10T01:04:42;-6.75;72.90
78902;DHT22;70441;44.758;37.686;2024-01-10T01:05:43;-6.75;73.19
78902;DHT22;70441;44.758;37.686;2024-01-10T01:06:45;-6.75;73.15
78902;DHT22;70441;44.758;37.686;2024-01-10T01:07:46;-6.78;72.73
78902;DHT22;70441;44.758;37.686;2024-01-10T01:08:48;-6.73;72.04
78902;DHT22;70441;44.758;37.686;2024-01-10T01:09:49;-6.71;71.43
78902;DHT22;70441;44.758;37.686;2024-01-10T01:10:51;-6.73;71.72
78902;DHT22;70441;44.758;37.686;2024-01-10T01:11:52;-6.73;72.09
78902;DHT22;70441;44.758;37.686;2024-01-10T01:12:54;-6.71;72.38
78902;DHT22;70441;44.758;37.686;2024-01-10T01:13:56;-6.71;71.70
78902;DHT22;70441;44.758;37.686;2024-01-10T01:14:57;-6.59;69.86
78902;DHT22;70441;44.758;37.686;2024-01-10T01:15:59;-6.56;70.00
78902;DHT22;70441;44.758;37.686;2024-01-10T01:17:01;-6.63;71.04
78902;DHT22;70441;44.758;37.686;2024-01-10T01:18:02;-6.68;72.05
78902;DHT22;70441;44.758;37.686;2024-01-10T01:19:04;-6.70;72.56
78902;DHT22;70441;44.758;37.686;2024-01-10T01:20:06;-6.71;72.52
78902;DHT22;70441;44.758;37.686;2024-01-10T01:21:08;-6.71;72.60
78902;DHT22;70441;44.758;37.686;2024-01-10T01:22:09;-6.75;72.66
78902;DHT22;70441;44.758;37.686;2024-01-10T01:23:11;-6.77;73.14
78902;DHT22;70441;44.758;37.686;2024-01-10T01:24:12;-6.80;72.86
78902;DHT22;70441;44.758;37.686;2024-01-10T01:25:14;-6.78;72.86
78902;DHT22;70441;44.758;37.686;2024-01-10T01:26:15;-6.77;72.68
78902;DHT22;70441;44.758;37.686;2024-01-10T01:27:17;-6.71;72.68
78902;DHT22;70441;44.758;37.686;2024-01-10T01:28:18;-6.68;72.87
78902;DHT22;70441;44.758;37.686;2024-01-10T01:29:20;-6.64;72.77
78902;DHT22;70441;44.758;37.686;2024-01-10T01:30:22;-6.66;72.60
78902;DHT22;70441;44.758;37.686;2024-01-10T01:31:23;-6.64;72.90
78902;DHT22;70441;44.758;37.686;2024-01-10T01:32:25;-6.64;72.36
78902;DHT22;70441;44.758;37.686;2024-01-10T01:33:26;-6.61;71.85
78902;DHT22;70441;44.758;37.686;2024-01-10T01:34:28;-6.61;71.73
78902;DHT22;70441;44.758;37.686;2024-01-10T01:35:29;-6.61;71.56
78902;DHT22;70441;44.758;37.686;2024-01-10T01:36:31;-6.63;71.93
78902;DHT22;70441;44.758;37.686;2024-01-10T01:37:32;-6.64;72.17
78902;DHT22;70441;44.758;37.686;2024-01-10T01:38:34;-6.66;72.48
78902;DHT22;70441;44.758;37.686;2024-01-10T01:39:36;-6.68;72.67
78902;DHT22;70441;44.758;37.686;2024-01-10T01:40:38;-6.67;72.63
78902;DHT22;70441;44.758;37.686;2024-01-10T01:41:39;-6.64;72.39
78902;DHT22;70441;44.758;37.686;2024-01-10T01:42:41;-6.64;71.97
78902;DHT22;70441;44.758;37.686;2024-01-10T01:43:44;-6.67;71.79
78902;DHT22;70441;44.758;37.686;2024-01-10T01:44:47;-6.67;72.24
78902;DHT22;70441;44.758;37.686;2024-01-10T01:45:52;-6.66;71.93
78902;DHT22;70441;44.758;37.686;2024-01-10T01:46:53;-6.61;71.40
78902;DHT22;70441;44.758;37.686;2024-01-10T01:47:55;-6.63;71.36
78902;DHT22;70441;44.758;37.686;2024-01-10T01:48:56;-6.64;71.75
78902;DHT22;70441;44.758;37.686;2024-01-10T01:49:58;-6.60;71.71
78902;DHT22;70441;44.758;37.686;2024-01-10T01:51:02;-6.61;71.36
78902;DHT22;70441;44.758;37.686;2024-01-10T01:52:05;-6.60;71.24
78902;DHT22;70441;44.758;37.686;2024-01-10T01:53:08;-6.54;71.22
78902;DHT22;70441;44.758;37.686;2024-01-10T01:54:10;-6.53;71.19
78902;DHT22;70441;44.758;37.686;2024-01-10T01:55:12;-6.51;71.28
78902;DHT22;70441;44.758;37.686;2024-01-10T01:56:14;-6.47;70.87
78902;DHT22;70441;44.758;37.686;2024-01-10T01:57:17;-6.46;70.63
78902;DHT22;70441;44.758;37.686;2024-01-10T01:58:19;-6.42;70.33
78902;DHT22;70441;44.758;37.686;2024-01-10T01:59:21;-6.42;70.14
78902;DHT22;70441;44.758;37.686;2024-01-10T02:00:23;-6.39;69.84
78902;DHT22;70441;44.758;37.686;2024-01-10T02:01:25;-6.37;69.54
78902;DHT22;70441;44.758;37.686;2024-01-10T02:02:27;-6.35;69.38
78902;DHT22;70441;44.758;37.686;2024-01-10T02:03:31;-6.35;69.01
78902;DHT22;70441;44.758;37.686;2024-01-10T02:04:34;-6.36;69.02
78902;DHT22;70441;44.758;37.686;2024-01-10T02:05:36;-6.35;68.98
78902;DHT22;70441;44.758;37.686;2024-01-10T02:06:38;-6.35;68.90
78902;DHT22;70441;44.758;37.686;2024-01-10T02:07:40;-6.35;68.67
78902;DHT22;70441;44.758;37.686;2024-01-10T02:08:41;-6.33;68.48
78902;DHT22;70441;44.758;37.686;2024-01-10T02:09:43;-6.30;68.56
78902;DHT22;70441;44.758;37.686;2024-01-10T02:10:45;-6.32;68.40
78902;DHT22;70441;44.758;37.686;2024-01-10T02:11:46;-6.28;68.01
78902;DHT22;70441;44.758;37.686;2024-01-10T02:12:48;-6.32;67.86
78902;DHT22;70441;44.758;37.686;2024-01-10T02:13:50;-6.32;68.15
78902;DHT22;70441;44.758;37.686;2024-01-10T02:14:52;-6.28;68.07
78902;DHT22;70441;44.758;37.686;2024-01-10T02:15:54;-6.29;67.98
78902;DHT22;70441;44.758;37.686;2024-01-10T02:16:56;-6.26;68.32
78902;DHT22;70441;44.758;37.686;2024-01-10T02:17:58;-6.26;68.27
78902;DHT22;70441;44.758;37.686;2024-01-10T02:18:59;-6.26;68.44
78902;DHT22;70441;44.758;37.686;2024-01-10T02:20:12;-6.30;68.83
78902;DHT22;70441;44.758;37.686;2024-01-10T03:44:52;-7.86;76.87
78902;DHT22;70441;44.758;37.686;2024-01-10T03:45:54;-7.86;76.69
78902;DHT22;70441;44.758;37.686;2024-01-10T03:46:56;-7.85;76.67
78902;DHT22;70441;44.758;37.686;2024-01-10T03:47:58;-7.86;77.01
78902;DHT22;70441;44.758;37.686;2024-01-10T03:48:59;-7.82;77.43
78902;DHT22;70441;44.758;37.686;2024-01-10T03:50:01;-7.81;77.54
78902;DHT22;70441;44.758;37.686;2024-01-10T03:51:04;-7.78;77.62
78902;DHT22;70441;44.758;37.686;2024-01-10T03:52:08;-7.75;77.65
78902;DHT22;70441;44.758;37.686;2024-01-10T03:53:10;-7.72;77.58
78902;DHT22;70441;44.758;37.686;2024-01-10T03:54:14;-7.63;77.52
78902;DHT22;70441;44.758;37.686;2024-01-10T03:55:16;-7.61;77.39
78902;DHT22;70441;44.758;37.686;2024-01-10T03:56:17;-7.58;77.37
78902;DHT22;70441;44.758;37.686;2024-01-10T03:57:19;-7.55;77.30
78902;DHT22;70441;44.758;37.686;2024-01-10T03:58:20;-7.52;77.36
78902;DHT22;70441;44.758;37.686;2024-01-10T03:59:22;-7.50;77.16
78902;DHT22;70441;44.758;37.686;2024-01-10T04:00:23;-7.43;76.98
78902;DHT22;70441;44.758;37.686;2024-01-10T04:01:26;-7.43;76.94
78902;DHT22;70441;44.758;37.686;2024-01-10T04:02:28;-7.41;76.87
78902;DHT22;70441;44.758;37.686;2024-01-10T04:03:30;-7.37;76.93
78902;DHT22;70441;44.758;37.686;2024-01-10T04:04:31;-7.34;76.79
78902;DHT22;70441;44.758;37.686;2024-01-10T04:05:33;-7.27;76.52
78902;DHT22;70441;44.758;37.686;2024-01-10T04:06:34;-7.26;76.41
78902;DHT22;70441;44.758;37.686;2024-01-10T04:07:36;-7.22;76.41
78902;DHT22;70441;44.758;37.686;2024-01-10T04:08:38;-7.20;76.24
78902;DHT22;70441;44.758;37.686;2024-01-10T04:09:39;-7.19;76.01
78902;DHT22;70441;44.758;37.686;2024-01-10T04:10:41;-7.15;75.76
78902;DHT22;70441;44.758;37.686;2024-01-10T04:11:42;-7.13;75.42
78902;DHT22;70441;44.758;37.686;2024-01-10T04:12:44;-7.13;75.20
78902;DHT22;70441;44.758;37.686;2024-01-10T04:13:48;-7.10;75.17
78902;DHT22;70441;44.758;37.686;2024-01-10T04:14:49;-7.10;75.11
78902;DHT22;70441;44.758;37.686;2024-01-10T04:15:51;-7.03;74.71
78902;DHT22;70441;44.758;37.686;2024-01-10T04:16:53;-7.01;74.23
78902;DHT22;70441;44.758;37.686;2024-01-10T04:17:54;-6.96;73.92
78902;DHT22;70441;44.758;37.686;2024-01-10T04:18:56;-6.92;73.89
78902;DHT22;70441;44.758;37.686;2024-01-10T04:19:58;-6.91;73.63
78902;DHT22;70441;44.758;37.686;2024-01-10T04:20:59;-6.85;73.27
78902;DHT22;70441;44.758;37.686;2024-01-10T04:22:01;-6.84;73.09
78902;DHT22;70441;44.758;37.686;2024-01-10T04:23:02;-6.85;73.02
78902;DHT22;70441;44.758;37.686;2024-01-10T04:24:04;-6.87;73.02
78902;DHT22;70441;44.758;37.686;2024-01-10T04:25:06;-6.87;73.19
78902;DHT22;70441;44.758;37.686;2024-01-10T04:26:08;-6.84;73.36
78902;DHT22;70441;44.758;37.686;2024-01-10T04:27:10;-6.88;73.31
78902;DHT22;70441;44.758;37.686;2024-01-10T04:28:11;-6.84;73.11
78902;DHT22;70441;44.758;37.686;2024-01-10T04:29:13;-6.84;72.89
78902;DHT22;70441;44.758;37.686;2024-01-10T04:30:14;-6.80;72.92
78902;DHT22;70441;44.758;37.686;2024-01-10T04:31:16;-6.83;73.07
78902;DHT22;70441;44.758;37.686;2024-01-10T04:32:17;-6.83;73.02
78902;DHT22;70441;44.758;37.686;2024-01-10T04:33:19;-6.83;72.92
78902;DHT22;70441;44.758;37.686;2024-01-10T04:34:21;-6.80;72.78
78902;DHT22;70441;44.758;37.686;2024-01-10T04:35:24;-6.78;72.86
78902;DHT22;70441;44.758;37.686;2024-01-10T04:36:25;-6.78;72.70
78902;DHT22;70441;44.758;37.686;2024-01-10T04:37:26;-6.83;72.51
78902;DHT22;70441;44.758;37.686;2024-01-10T04:38:28;-6.80;72.55
78902;DHT22;70441;44.758;37.686;2024-01-10T04:39:29;-6.80;72.80
78902;DHT22;70441;44.758;37.686;2024-01-10T04:40:31;-6.81;73.09
78902;DHT22;70441;44.758;37.686;2024-01-10T04:41:33;-6.81;73.03
78902;DHT22;70441;44.758;37.686;2024-01-10T04:42:34;-6.80;72.79
78902;DHT22;70441;44.758;37.686;2024-01-10T04:43:36;-6.77;72.83
78902;DHT22;70441;44.758;37.686;2024-01-10T04:44:37;-6.78;72.95
78902;DHT22;70441;44.758;37.686;2024-01-10T04:45:39;-6.81;73.15
78902;DHT22;70441;44.758;37.686;2024-01-10T04:46:40;-6.83;73.42
78902;DHT22;70441;44.758;37.686;2024-01-10T04:47:43;-6.83;73.61
78902;DHT22;70441;44.758;37.686;2024-01-10T04:48:46;-6.81;73.83
78902;DHT22;70441;44.758;37.686;2024-01-10T04:49:47;-6.85;73.95
78902;DHT22;70441;44.758;37.686;2024-01-10T04:50:49;-6.85;74.04
78902;DHT22;70441;44.758;37.686;2024-01-10T04:51:51;-6.87;74.18
78902;DHT22;70441;44.758;37.686;2024-01-10T04:52:52;-6.85;74.05
78902;DHT22;70441;44.758;37.686;2024-01-10T04:53:54;-6.87;73.90
78902;DHT22;70441;44.758;37.686;2024-01-10T04:54:56;-6.87;73.97
78902;DHT22;70441;44.758;37.686;2024-01-10T04:56:01;-6.87;73.99
78902;DHT22;70441;44.758;37.686;2024-01-10T04:57:02;-6.87;73.69
78902;DHT22;70441;44.758;37.686;2024-01-10T04:58:04;-6.84;73.28
78902;DHT22;70441;44.758;37.686;2024-01-10T04:59:05;-6.83;73.40
78902;DHT22;70441;44.758;37.686;2024-01-10T05:00:07;-6.80;73.01
78902;DHT22;70441;44.758;37.686;2024-01-10T05:01:09;-6.77;72.83
78902;DHT22;70441;44.758;37.686;2024-01-10T05:02:11;-6.75;72.60
78902;DHT22;70441;44.758;37.686;2024-01-10T05:03:12;-6.71;72.68
78902;DHT22;70441;44.758;37.686;2024-01-10T05:04:16;-6.73;72.82
78902;DHT22;70441;44.758;37.686;2024-01-10T05:05:18;-6.77;73.18
78902;DHT22;70441;44.758;37.686;2024-01-10T05:06:24;-6.80;73.62
78902;DHT22;70441;44.758;37.686;2024-01-10T05:07:26;-6.84;73.69
78902;DHT22;70441;44.758;37.686;2024-01-10T05:08:27;-6.80;73.51
78902;DHT22;70441;44.758;37.686;2024-01-10T05:09:29;-6.77;73.20
78902;DHT22;70441;44.758;37.686;2024-01-10T05:10:30;-6.78;73.13
78902;DHT22;70441;44.758;37.686;2024-01-10T05:11:32;-6.77;73.37
78902;DHT22;70441;44.758;37.686;2024-01-10T05:12:37;-6.78;73.56
78902;DHT22;70441;44.758;37.686;2024-01-10T05:13:39;-6.81;73.67
78902;DHT22;70441;44.758;37.686;2024-01-10T05:14:42;-6.81;73.90
78902;DHT22;70441;44.758;37.686;2024-01-10T05:15:44;-6.84;74.26
78902;DHT22;70441;44.758;37.686;2024-01-10T05:16:45;-6.88;74.55
78902;DHT22;70441;44.758;37.686;2024-01-10T05:17:49;-6.85;74.70
78902;DHT22;70441;44.758;37.686;2024-01-10T05:18:50;-6.89;74.80
78902;DHT22;70441;44.758;37.686;2024-01-10T05:19:52;-6.88;74.89
78902;DHT22;70441;44.758;37.686;2024-01-10T05:20:54;-6.92;74.99
78902;DHT22;70441;44.758;37.686;2024-01-10T05:21:55;-6.88;75.19
78902;DHT22;70441;44.758;37.686;2024-01-10T05:22:58;-6.91;75.46
78902;DHT22;70441;44.758;37.686;2024-01-10T05:23:59;-6.89;75.36
78902;DHT22;70441;44.758;37.686;2024-01-10T05:25:01;-6.88;75.31
78902;DHT22;70441;44.758;37.686;2024-01-10T05:26:02;-6.89;75.14
78902;DHT22;70441;44.758;37.686;2024-01-10T05:27:05;-6.88;75.44
78902;DHT22;70441;44.758;37.686;2024-01-10T05:28:07;-6.92;75.50
78902;DHT22;70441;44.758;37.686;2024-01-10T05:29:08;-6.91;75.33
78902;DHT22;70441;44.758;37.686;2024-01-10T05:30:10;-6.88;74.96
78902;DHT22;70441;44.758;37.686;2024-01-10T05:31:14;-6.87;74.87
78902;DHT22;70441;44.758;37.686;2024-01-10T05:32:15;-6.85;74.74
78902;DHT22;70441;44.758;37.686;2024-01-10T05:33:17;-6.88;74.59
78902;DHT22;70441;44.758;37.686;2024-01-10T05:34:19;-6.88;74.69
78902;DHT22;70441;44.758;37.686;2024-01-10T05:35:20;-6.87;74.82
78902;DHT22;70441;44.758;37.686;2024-01-10T05:36:22;-6.85;74.82
78902;DHT22;70441;44.758;37.686;2024-01-10T05:37:24;-6.84;74.98
78902;DHT22;70441;44.758;37.686;2024-01-10T05:38:25;-6.87;74.91
78902;DHT22;70441;44.758;37.686;2024-01-10T05:39:27;-6.85;74.89
78902;DHT22;70441;44.758;37.686;2024-01-10T05:40:29;-6.83;74.77
78902;DHT22;70441;44.758;37.686;2024-01-10T05:41:33;-6.83;74.54
78902;DHT22;70441;44.758;37.686;2024-01-10T05:42:34;-6.80;74.46
78902;DHT22;70441;44.758;37.686;2024-01-10T05:43:36;-6.75;74.18
78902;DHT22;70441;44.758;37.686;2024-01-10T05:44:37;-6.73;73.68
78902;DHT22;70441;44.758;37.686;2024-01-10T05:45:40;-6.68;73.47
78902;DHT22;70441;44.758;37.686;2024-01-10T05:46:41;-6.67;73.27
78902;DHT22;70441;44.758;37.686;2024-01-10T05:47:43;-6.64;73.05
78902;DHT22;70441;44.758;37.686;2024-01-10T05:48:45;-6.60;72.69
78902;DHT22;70441;44.758;37.686;2024-01-10T05:49:47;-6.54;72.19
78902;DHT22;70441;44.758;37.686;2024-01-10T05:50:48;-6.49;71.95
78902;DHT22;70441;44.758;37.686;2024-01-10T05:51:52;-6.46;71.79
78902;DHT22;70441;44.758;37.686;2024-01-10T05:52:56;-6.42;71.15
78902;DHT22;70441;44.758;37.686;2024-01-10T05:53:57;-6.37;70.82
78902;DHT22;70441;44.758;37.686;2024-01-10T05:54:59;-6.32;70.71
78902;DHT22;70441;44.758;37.686;2024-01-10T05:56:06;-6.30;70.81
78902;DHT22;70441;44.758;37.686;2024-01-10T05:57:08;-6.28;70.58
78902;DHT22;70441;44.758;37.686;2024-01-10T05:58:10;-6.22;70.72
78902;DHT22;70441;44.758;37.686;2024-01-10T05:59:12;-6.22;69.94
78902;DHT22;70441;44.758;37.686;2024-01-10T06:00:14;-6.21;69.93
78902;DHT22;70441;44.758;37.686;2024-01-10T06:01:17;-6.14;69.74
78902;DHT22;70441;44.758;37.686;2024-01-10T06:02:19;-6.12;69.44
78902;DHT22;70441;44.758;37.686;2024-01-10T06:03:20;-6.04;69.14
78902;DHT22;70441;44.758;37.686;2024-01-10T06:04:22;-5.97;69.18
78902;DHT22;70441;44.758;37.686;2024-01-10T06:05:23;-5.89;68.78
78902;DHT22;70441;44.758;37.686;2024-01-10T06:06:25;-5.83;68.24
78902;DHT22;70441;44.758;37.686;2024-01-10T06:07:53;-5.77;67.84
78902;DHT22;70441;44.758;37.686;2024-01-10T06:08:54;-5.73;67.74
78902;DHT22;70441;44.758;37.686;2024-01-10T06:09:56;-5.73;67.09
78902;DHT22;70441;44.758;37.686;2024-01-10T06:10:57;-5.69;67.09
78902;DHT22;70441;44.758;37.686;2024-01-10T06:11:59;-5.62;67.18
78902;DHT22;70441;44.758;37.686;2024-01-10T06:13:00;-5.56;66.95
78902;DHT22;70441;44.758;37.686;2024-01-10T06:14:02;-5.48;66.64
78902;DHT22;70441;44.758;37.686;2024-01-10T06:15:04;-5.43;65.82
78902;DHT22;70441;44.758;37.686;2024-01-10T06:16:07;-5.36;65.92
78902;DHT22;70441;44.758;37.686;2024-01-10T06:17:08;-5.34;65.68
78902;DHT22;70441;44.758;37.686;2024-01-10T06:18:10;-5.31;65.84
78902;DHT22;70441;44.758;37.686;2024-01-10T06:19:11;-5.32;65.00
78902;DHT22;70441;44.758;37.686;2024-01-10T06:20:13;-5.28;65.37
78902;DHT22;70441;44.758;37.686;2024-01-10T06:21:15;-5.24;65.55
78902;DHT22;70441;44.758;37.686;2024-01-10T06:22:16;-5.17;65.66
78902;DHT22;70441;44.758;37.686;2024-01-10T06:23:18;-5.11;65.16
78902;DHT22;70441;44.758;37.686;2024-01-10T06:24:19;-5.04;64.54
78902;DHT22;70441;44.758;37.686;2024-01-10T06:25:21;-5.01;64.39
78902;DHT22;70441;44.758;37.686;2024-01-10T06:26:22;-5.00;64.43
78902;DHT22;70441;44.758;37.686;2024-01-10T06:27:24;-4.97;63.92
78902;DHT22;70441;44.758;37.686;2024-01-10T06:28:25;-4.90;63.59
78902;DHT22;70441;44.758;37.686;2024-01-10T06:29:27;-4.89;62.88
78902;DHT22;70441;44.758;37.686;2024-01-10T06:30:29;-4.89;63.29
78902;DHT22;70441;44.758;37.686;2024-01-10T06:31:30;-4.90;63.29
78902;DHT22;70441;44.758;37.686;2024-01-10T06:32:31;-4.88;63.02
78902;DHT22;70441;44.758;37.686;2024-01-10T06:33:33;-4.88;63.10
78902;DHT22;70441;44.758;37.686;2024-01-10T06:34:34;-4.92;62.54
78902;DHT22;70441;44.758;37.686;2024-01-10T06:35:36;-4.93;62.81
78902;DHT22;70441;44.758;37.686;2024-01-10T06:36:38;-4.82;63.56
78902;DHT22;70441;44.758;37.686;2024-01-10T06:37:40;-4.73;63.57
78902;DHT22;70441;44.758;37.686;2024-01-10T06:38:43;-4.68;63.50
78902;DHT22;70441;44.758;37.686;2024-01-10T06:39:44;-4.62;63.69
78902;DHT22;70441;44.758;37.686;2024-01-10T06:40:46;-4.64;63.60
78902;DHT22;70441;44.758;37.686;2024-01-10T06:41:48;-4.80;63.61
78902;DHT22;70441;44.758;37.686;2024-01-10T06:42:50;-4.80;64.62
78902;DHT22;70441;44.758;37.686;2024-01-10T06:43:52;-4.78;63.92
78902;DHT22;70441;44.758;37.686;2024-01-10T06:44:54;-4.75;63.56
78902;DHT22;70441;44.758;37.686;2024-01-10T06:45:56;-4.69;63.57
78902;DHT22;70441;44.758;37.686;2024-01-10T06:46:57;-4.61;63.70
78902;DHT22;70441;44.758;37.686;2024-01-10T06:47:59;-4.58;62.73
78902;DHT22;70441;44.758;37.686;2024-01-10T06:49:01;-4.57;62.84
78902;DHT22;70441;44.758;37.686;2024-01-10T06:50:02;-4.53;63.58
78902;DHT22;70441;44.758;37.686;2024-01-10T06:51:10;-4.54;63.80
78902;DHT22;70441;44.758;37.686;2024-01-10T06:52:13;-4.54;63.63
78902;DHT22;70441;44.758;37.686;2024-01-10T06:53:15;-4.48;62.65
78902;DHT22;70441;44.758;37.686;2024-01-10T06:54:16;-4.53;62.67
78902;DHT22;70441;44.758;37.686;2024-01-10T06:55:19;-4.62;64.74
78902;DHT22;70441;44.758;37.686;2024-01-10T06:56:21;-4.72;65.86
78902;DHT22;70441;44.758;37.686;2024-01-10T06:57:23;-4.79;66.23
78902;DHT22;70441;44.758;37.686;2024-01-10T06:58:24;-4.86;67.09
78902;DHT22;70441;44.758;37.686;2024-01-10T06:59:26;-4.89;67.42
78902;DHT22;70441;44.758;37.686;2024-01-10T07:00:27;-4.90;67.73
78902;DHT22;70441;44.758;37.686;2024-01-10T07:01:29;-4.97;67.86
78902;DHT22;70441;44.758;37.686;2024-01-10T07:02:30;-4.99;68.56
78902;DHT22;70441;44.758;37.686;2024-01-10T07:03:33;-4.97;68.51
78902;DHT22;70441;44.758;37.686;2024-01-10T07:04:39;-4.76;68.06
78902;DHT22;70441;44.758;37.686;2024-01-10T07:05:40;-4.68;66.96
78902;DHT22;70441;44.758;37.686;2024-01-10T07:06:42;-4.60;66.74
78902;DHT22;70441;44.758;37.686;2024-01-10T07:07:44;-4.47;66.27
78902;DHT22;70441;44.758;37.686;2024-01-10T07:08:47;-4.31;66.05
78902;DHT22;70441;44.758;37.686;2024-01-10T07:09:49;-4.20;65.92
78902;DHT22;70441;44.758;37.686;2024-01-10T07:10:50;-4.02;66.07
78902;DHT22;70441;44.758;37.686;2024-01-10T07:11:51;-3.95;65.50
78902;DHT22;70441;44.758;37.686;2024-01-10T07:12:55;-3.96;64.58
78902;DHT22;70441;44.758;37.686;2024-01-10T07:13:56;-3.89;64.39
78902;DHT22;70441;44.758;37.686;2024-01-10T07:14:58;-3.77;64.60
78902;DHT22;70441;44.758;37.686;2024-01-10T07:16:00;-3.70;63.53
78902;DHT22;70441;44.758;37.686;2024-01-10T07:17:03;-3.70;62.50
78902;DHT22;70441;44.758;37.686;2024-01-10T07:18:05;-3.88;62.63
78902;DHT22;70441;44.758;37.686;2024-01-10T07:19:09;-3.98;62.87
78902;DHT22;70441;44.758;37.686;2024-01-10T07:20:10;-4.02;63.03
78902;DHT22;70441;44.758;37.686;2024-01-10T07:21:13;-4.09;63.74
78902;DHT22;70441;44.758;37.686;2024-01-10T07:22:15;-4.01;63.92
78902;DHT22;70441;44.758;37.686;2024-01-10T07:23:19;-3.95;63.43
78902;DHT22;70441;44.758;37.686;2024-01-10T07:24:20;-3.98;63.77
78902;DHT22;70441;44.758;37.686;2024-01-10T07:25:22;-3.98;63.76
78902;DHT22;70441;44.758;37.686;2024-01-10T07:26:26;-3.96;64.05
78902;DHT22;70441;44.758;37.686;2024-01-10T07:27:28;-3.92;64.19
78902;DHT22;70441;44.758;37.686;2024-01-10T07:28:30;-4.03;63.25
78902;DHT22;70441;44.758;37.686;2024-01-10T07:29:34;-3.95;64.20
78902;DHT22;70441;44.758;37.686;2024-01-10T07:30:36;-3.92;63.10
78902;DHT22;70441;44.758;37.686;2024-01-10T07:31:38;-3.88;63.63
78902;DHT22;70441;44.758;37.686;2024-01-10T07:32:41;-3.94;62.77
78902;DHT22;70441;44.758;37.686;2024-01-10T07:33:43;-3.98;62.77
78902;DHT22;70441;44.758;37.686;2024-01-10T07:34:44;-4.01;62.42
78902;DHT22;70441;44.758;37.686;2024-01-10T07:35:46;-3.95;63.32
78902;DHT22;70441;44.758;37.686;2024-01-10T07:36:47;-3.91;62.98
78902;DHT22;70441;44.758;37.686;2024-01-10T07:37:49;-3.84;63.43
78902;DHT22;70441;44.758;37.686;2024-01-10T07:38:50;-3.82;63.54
78902;DHT22;70441;44.758;37.686;2024-01-10T07:39:52;-3.75;63.61
78902;DHT22;70441;44.758;37.686;2024-01-10T07:40:55;-3.82;61.88
78902;DHT22;70441;44.758;37.686;2024-01-10T07:41:56;-3.77;62.88
78902;DHT22;70441;44.758;37.686;2024-01-10T07:42:58;-3.74;62.94
78902;DHT22;70441;44.758;37.686;2024-01-10T07:43:59;-3.74;62.81
78902;DHT22;70441;44.758;37.686;2024-01-10T07:45:01;-3.70;62.59
78902;DHT22;70441;44.758;37.686;2024-01-10T07:46:06;-3.67;62.89
78902;DHT22;70441;44.758;37.686;2024-01-10T07:47:07;-3.60;62.20
78902;DHT22;70441;44.758;37.686;2024-01-10T07:48:09;-3.60;62.52
78902;DHT22;70441;44.758;37.686;2024-01-10T07:49:12;-3.63;62.45